EAG5518 SBTE-SBPL
Flight info
| Callsign | EAG5518 |
|---|---|
| Flight time | 0h 55m |
| Altitude | 37000 |
| Route | GUEST DCT ILSOL DCT REBAM |
| Aircraft | A320/M-SDE3FGHIRWY/LB1 |
Departure
| Time | 2026-04-19 14:32 |
|---|---|
| Airport | Senador Petrônio Portela Airport (SBTE) |
Arrival
| Time | 2026-04-19 15:28 |
|---|---|
| Airport | Senador Nilo Coelho Airport (SBPL) |
| Time | Latitude | Longitude | Altitude | Speed | Heading |
|---|---|---|---|---|---|
| 2026-04-19 14:19 | -5.06415 | -42.82166 | 217 ft | 0 kts | 120° |
| 2026-04-19 14:24 | -5.06414 | -42.82166 | 217 ft | 1 kts | 120° |
| 2026-04-19 14:24 | -5.06404 | -42.82186 | 221 ft | 4 kts | 108° |
| 2026-04-19 14:24 | -5.06398 | -42.82213 | 215 ft | 4 kts | 96° |
| 2026-04-19 14:24 | -5.06398 | -42.82217 | 216 ft | 0 kts | 96° |
| 2026-04-19 14:27 | -5.06394 | -42.82207 | 223 ft | 5 kts | 54° |
| 2026-04-19 14:27 | -5.06375 | -42.82214 | 215 ft | 2 kts | 320° |
| 2026-04-19 14:28 | -5.06370 | -42.82225 | 216 ft | 1 kts | 295° |
| 2026-04-19 14:28 | -5.06368 | -42.82260 | 216 ft | 6 kts | 264° |
| 2026-04-19 14:28 | -5.06368 | -42.82307 | 217 ft | 8 kts | 283° |
| 2026-04-19 14:28 | -5.06326 | -42.82338 | 217 ft | 11 kts | 348° |
| 2026-04-19 14:29 | -5.06237 | -42.82349 | 221 ft | 13 kts | 353° |
| 2026-04-19 14:29 | -5.06138 | -42.82360 | 217 ft | 16 kts | 354° |
| 2026-04-19 14:29 | -5.06017 | -42.82373 | 215 ft | 19 kts | 354° |
| 2026-04-19 14:29 | -5.05877 | -42.82387 | 216 ft | 21 kts | 354° |
| 2026-04-19 14:30 | -5.05718 | -42.82403 | 215 ft | 25 kts | 354° |
| 2026-04-19 14:30 | -5.05537 | -42.82422 | 214 ft | 27 kts | 354° |
| 2026-04-19 14:30 | -5.05362 | -42.82441 | 215 ft | 25 kts | 354° |
| 2026-04-19 14:30 | -5.05201 | -42.82457 | 216 ft | 20 kts | 354° |
| 2026-04-19 14:31 | -5.05105 | -42.82457 | 223 ft | 11 kts | 16° |
| 2026-04-19 14:31 | -5.05047 | -42.82453 | 214 ft | 4 kts | 292° |
| 2026-04-19 14:31 | -5.05073 | -42.82471 | 217 ft | 6 kts | 195° |
| 2026-04-19 14:31 | -5.05121 | -42.82467 | 217 ft | 11 kts | 173° |
| 2026-04-19 14:32 | -5.05497 | -42.82427 | 218 ft | 106 kts | 174° |
| 2026-04-19 14:32 | -5.06525 | -42.82321 | 297 ft | 180 kts | 174° |
| 2026-04-19 14:32 | -5.07853 | -42.82182 | 992 ft | 204 kts | 174° |
| 2026-04-19 14:32 | -5.09357 | -42.82021 | 1802 ft | 231 kts | 174° |
| 2026-04-19 14:33 | -5.10978 | -42.81860 | 2796 ft | 237 kts | 175° |
| 2026-04-19 14:33 | -5.12674 | -42.81702 | 3544 ft | 255 kts | 175° |
| 2026-04-19 14:33 | -5.14472 | -42.81753 | 4443 ft | 264 kts | 197° |
| 2026-04-19 14:33 | -5.16151 | -42.82531 | 5485 ft | 268 kts | 210° |
| 2026-04-19 14:34 | -5.17768 | -42.83493 | 6567 ft | 272 kts | 212° |
| 2026-04-19 14:34 | -5.19388 | -42.84497 | 7625 ft | 276 kts | 212° |
| 2026-04-19 14:34 | -5.21046 | -42.85503 | 8640 ft | 281 kts | 211° |
| 2026-04-19 14:35 | -5.24492 | -42.87493 | 10451 ft | 298 kts | 210° |
| 2026-04-19 14:35 | -5.26376 | -42.88539 | 10876 ft | 322 kts | 209° |
| 2026-04-19 14:35 | -5.28418 | -42.89658 | 11240 ft | 345 kts | 208° |
| 2026-04-19 14:35 | -5.30550 | -42.90814 | 11843 ft | 357 kts | 208° |
| 2026-04-19 14:36 | -5.32763 | -42.92008 | 12637 ft | 363 kts | 208° |
| 2026-04-19 14:36 | -5.35005 | -42.93216 | 13448 ft | 368 kts | 208° |
| 2026-04-19 14:36 | -5.37273 | -42.94442 | 14251 ft | 372 kts | 208° |
| 2026-04-19 14:36 | -5.39559 | -42.95686 | 15017 ft | 376 kts | 208° |
| 2026-04-19 14:37 | -5.41872 | -42.96947 | 15761 ft | 381 kts | 208° |
| 2026-04-19 14:37 | -5.44213 | -42.98222 | 16484 ft | 385 kts | 208° |
| 2026-04-19 14:37 | -5.46577 | -42.99506 | 17179 ft | 389 kts | 208° |
| 2026-04-19 14:37 | -5.48966 | -43.00803 | 17848 ft | 393 kts | 208° |
| 2026-04-19 14:38 | -5.51387 | -43.02117 | 18497 ft | 396 kts | 208° |
| 2026-04-19 14:38 | -5.53823 | -43.03440 | 19127 ft | 400 kts | 208° |
| 2026-04-19 14:38 | -5.55999 | -43.04623 | 19676 ft | 404 kts | 208° |
| 2026-04-19 14:38 | -5.57822 | -43.05615 | 20113 ft | 406 kts | 208° |
| 2026-04-19 14:39 | -5.60315 | -43.06970 | 20708 ft | 410 kts | 208° |
| 2026-04-19 14:39 | -5.62924 | -43.08054 | 21246 ft | 414 kts | 196° |
| 2026-04-19 14:39 | -5.65066 | -43.08508 | 21657 ft | 417 kts | 187° |
| 2026-04-19 14:39 | -5.68063 | -43.08551 | 22208 ft | 421 kts | 174° |
| 2026-04-19 14:40 | -5.70940 | -43.07952 | 22724 ft | 424 kts | 162° |
| 2026-04-19 14:40 | -5.73644 | -43.06746 | 23223 ft | 428 kts | 149° |
| 2026-04-19 14:40 | -5.76178 | -43.05145 | 23714 ft | 431 kts | 147° |
| 2026-04-19 14:40 | -5.78720 | -43.03517 | 24190 ft | 434 kts | 147° |
| 2026-04-19 14:41 | -5.81274 | -43.01882 | 24655 ft | 437 kts | 148° |
| 2026-04-19 14:41 | -5.83852 | -43.00235 | 25102 ft | 440 kts | 148° |
| 2026-04-19 14:41 | -5.86446 | -42.98583 | 25557 ft | 443 kts | 148° |
| 2026-04-19 14:41 | -5.89054 | -42.96922 | 25972 ft | 446 kts | 148° |
| 2026-04-19 14:42 | -5.91688 | -42.95244 | 26391 ft | 449 kts | 148° |
| 2026-04-19 14:42 | -5.94333 | -42.93557 | 26797 ft | 452 kts | 148° |
| 2026-04-19 14:42 | -5.96988 | -42.91861 | 27188 ft | 454 kts | 148° |
| 2026-04-19 14:42 | -5.99663 | -42.90153 | 27556 ft | 457 kts | 148° |
| 2026-04-19 14:43 | -6.02354 | -42.88433 | 27917 ft | 460 kts | 148° |
| 2026-04-19 14:43 | -6.05059 | -42.86705 | 28279 ft | 462 kts | 148° |
| 2026-04-19 14:43 | -6.07754 | -42.84986 | 28618 ft | 464 kts | 148° |
| 2026-04-19 14:43 | -6.10493 | -42.83236 | 28969 ft | 467 kts | 148° |
| 2026-04-19 14:44 | -6.13242 | -42.81481 | 29279 ft | 469 kts | 148° |
| 2026-04-19 14:44 | -6.16008 | -42.79715 | 29600 ft | 471 kts | 148° |
| 2026-04-19 14:44 | -6.18768 | -42.77952 | 30044 ft | 470 kts | 148° |
| 2026-04-19 14:44 | -6.21522 | -42.76190 | 30501 ft | 468 kts | 148° |
| 2026-04-19 14:45 | -6.24269 | -42.74433 | 30946 ft | 467 kts | 148° |
| 2026-04-19 14:45 | -6.27007 | -42.72682 | 31372 ft | 466 kts | 148° |
| 2026-04-19 14:45 | -6.29750 | -42.70932 | 31793 ft | 466 kts | 148° |
| 2026-04-19 14:45 | -6.32484 | -42.69188 | 32199 ft | 465 kts | 148° |
| 2026-04-19 14:46 | -6.35213 | -42.67447 | 32623 ft | 464 kts | 148° |
| 2026-04-19 14:46 | -6.37936 | -42.65717 | 33021 ft | 463 kts | 148° |
| 2026-04-19 14:46 | -6.40679 | -42.64018 | 33413 ft | 463 kts | 149° |
| 2026-04-19 14:46 | -6.43434 | -42.62346 | 33801 ft | 462 kts | 149° |
| 2026-04-19 14:47 | -6.46162 | -42.60708 | 34196 ft | 461 kts | 149° |
| 2026-04-19 14:47 | -6.48914 | -42.59055 | 34599 ft | 460 kts | 149° |
| 2026-04-19 14:47 | -6.51659 | -42.57404 | 34986 ft | 459 kts | 149° |
| 2026-04-19 14:47 | -6.54401 | -42.55746 | 35359 ft | 459 kts | 149° |
| 2026-04-19 14:48 | -6.57133 | -42.54089 | 35712 ft | 458 kts | 149° |
| 2026-04-19 14:48 | -6.59855 | -42.52435 | 36058 ft | 457 kts | 149° |
| 2026-04-19 14:48 | -6.62575 | -42.50779 | 36378 ft | 456 kts | 149° |
| 2026-04-19 14:48 | -6.65291 | -42.49124 | 36693 ft | 456 kts | 149° |
| 2026-04-19 14:49 | -6.68011 | -42.47465 | 36931 ft | 457 kts | 149° |
| 2026-04-19 14:49 | -6.70734 | -42.45804 | 37005 ft | 457 kts | 149° |
| 2026-04-19 14:49 | -6.76176 | -42.42489 | 37009 ft | 457 kts | 149° |
| 2026-04-19 14:50 | -6.81583 | -42.39208 | 37009 ft | 457 kts | 149° |
| 2026-04-19 14:50 | -6.87032 | -42.35890 | 37009 ft | 457 kts | 149° |
| 2026-04-19 14:51 | -6.92470 | -42.32571 | 37009 ft | 457 kts | 149° |
| 2026-04-19 14:51 | -6.97913 | -42.29256 | 37010 ft | 457 kts | 149° |
| 2026-04-19 14:52 | -7.03361 | -42.25942 | 37012 ft | 458 kts | 149° |
| 2026-04-19 14:52 | -7.08808 | -42.22625 | 37014 ft | 458 kts | 149° |
| 2026-04-19 14:53 | -7.14223 | -42.19321 | 37017 ft | 458 kts | 149° |
| 2026-04-19 14:53 | -7.19674 | -42.15995 | 37019 ft | 458 kts | 149° |
| 2026-04-19 14:54 | -7.25136 | -42.12664 | 37021 ft | 458 kts | 149° |
| 2026-04-19 14:54 | -7.30585 | -42.09338 | 37026 ft | 458 kts | 149° |
| 2026-04-19 14:55 | -7.36043 | -42.06010 | 37022 ft | 458 kts | 149° |
| 2026-04-19 14:55 | -7.41499 | -42.02681 | 37023 ft | 458 kts | 149° |
| 2026-04-19 14:56 | -7.46947 | -41.99349 | 37022 ft | 458 kts | 149° |
| 2026-04-19 14:56 | -7.52400 | -41.96016 | 37022 ft | 458 kts | 149° |
| 2026-04-19 14:57 | -7.57827 | -41.92697 | 37022 ft | 458 kts | 149° |
| 2026-04-19 14:57 | -7.63282 | -41.89364 | 37023 ft | 459 kts | 149° |
| 2026-04-19 14:58 | -7.68734 | -41.86029 | 37024 ft | 458 kts | 149° |
| 2026-04-19 14:58 | -7.74193 | -41.82694 | 37030 ft | 458 kts | 149° |
| 2026-04-19 14:59 | -7.79646 | -41.79352 | 37025 ft | 458 kts | 149° |
| 2026-04-19 14:59 | -7.85098 | -41.76018 | 37026 ft | 458 kts | 149° |
| 2026-04-19 15:00 | -7.90555 | -41.72681 | 37022 ft | 459 kts | 149° |
| 2026-04-19 15:00 | -7.95977 | -41.69361 | 37022 ft | 459 kts | 149° |
| 2026-04-19 15:01 | -8.01438 | -41.66017 | 37023 ft | 459 kts | 149° |
| 2026-04-19 15:01 | -8.06893 | -41.62670 | 37023 ft | 459 kts | 149° |
| 2026-04-19 15:02 | -8.12358 | -41.59315 | 37023 ft | 459 kts | 149° |
| 2026-04-19 15:02 | -8.17825 | -41.55964 | 37024 ft | 459 kts | 149° |
| 2026-04-19 15:03 | -8.23283 | -41.52618 | 37024 ft | 459 kts | 149° |
| 2026-04-19 15:03 | -8.28747 | -41.49272 | 37024 ft | 459 kts | 149° |
| 2026-04-19 15:04 | -8.34210 | -41.45914 | 37024 ft | 459 kts | 149° |
| 2026-04-19 15:04 | -8.39683 | -41.42552 | 37025 ft | 459 kts | 149° |
| 2026-04-19 15:05 | -8.45113 | -41.39221 | 37026 ft | 459 kts | 149° |
| 2026-04-19 15:05 | -8.50581 | -41.35865 | 37027 ft | 460 kts | 149° |
| 2026-04-19 15:06 | -8.56043 | -41.32503 | 37025 ft | 460 kts | 149° |
| 2026-04-19 15:06 | -8.61503 | -41.29136 | 36908 ft | 460 kts | 149° |
| 2026-04-19 15:07 | -8.63342 | -41.28002 | 36748 ft | 459 kts | 149° |
| 2026-04-19 15:07 | -8.66038 | -41.26346 | 36503 ft | 459 kts | 149° |
| 2026-04-19 15:07 | -8.68773 | -41.24670 | 36116 ft | 459 kts | 149° |
| 2026-04-19 15:07 | -8.71518 | -41.22988 | 35165 ft | 464 kts | 149° |
| 2026-04-19 15:08 | -8.74286 | -41.21287 | 34188 ft | 467 kts | 149° |
| 2026-04-19 15:08 | -8.77079 | -41.19567 | 33190 ft | 471 kts | 149° |
| 2026-04-19 15:08 | -8.79885 | -41.17838 | 32069 ft | 475 kts | 149° |
| 2026-04-19 15:08 | -8.82723 | -41.16090 | 31031 ft | 477 kts | 149° |
| 2026-04-19 15:09 | -8.85566 | -41.14335 | 29827 ft | 481 kts | 149° |
| 2026-04-19 15:09 | -8.88417 | -41.12575 | 28736 ft | 481 kts | 149° |
| 2026-04-19 15:09 | -8.91283 | -41.10806 | 27533 ft | 483 kts | 149° |
| 2026-04-19 15:09 | -8.94156 | -41.09033 | 26237 ft | 485 kts | 149° |
| 2026-04-19 15:10 | -8.97042 | -41.07256 | 25050 ft | 484 kts | 149° |
| 2026-04-19 15:10 | -8.99917 | -41.05486 | 23892 ft | 481 kts | 149° |
| 2026-04-19 15:10 | -9.02735 | -41.03754 | 22827 ft | 478 kts | 149° |
| 2026-04-19 15:10 | -9.05560 | -41.02018 | 21853 ft | 472 kts | 149° |
| 2026-04-19 15:11 | -9.08337 | -41.00306 | 20941 ft | 465 kts | 149° |
| 2026-04-19 15:11 | -9.11053 | -40.98627 | 19520 ft | 451 kts | 149° |
| 2026-04-19 15:11 | -9.13672 | -40.97008 | 18633 ft | 428 kts | 149° |
| 2026-04-19 15:11 | -9.16183 | -40.95455 | 17979 ft | 418 kts | 149° |
| 2026-04-19 15:12 | -9.18645 | -40.93928 | 17273 ft | 414 kts | 147° |
| 2026-04-19 15:12 | -9.20798 | -40.92128 | 17011 ft | 386 kts | 132° |
| 2026-04-19 15:12 | -9.22287 | -40.90006 | 16843 ft | 356 kts | 117° |
| 2026-04-19 15:12 | -9.23155 | -40.87760 | 16586 ft | 334 kts | 104° |
| 2026-04-19 15:13 | -9.23470 | -40.85471 | 16001 ft | 325 kts | 90° |
| 2026-04-19 15:13 | -9.23250 | -40.83252 | 15332 ft | 320 kts | 79° |
| 2026-04-19 15:13 | -9.22835 | -40.81051 | 14615 ft | 317 kts | 79° |
| 2026-04-19 15:13 | -9.22434 | -40.78865 | 13948 ft | 314 kts | 79° |
| 2026-04-19 15:14 | -9.22052 | -40.76749 | 13667 ft | 297 kts | 79° |
| 2026-04-19 15:14 | -9.21684 | -40.74702 | 13048 ft | 297 kts | 79° |
| 2026-04-19 15:14 | -9.21315 | -40.72636 | 12249 ft | 300 kts | 79° |
| 2026-04-19 15:14 | -9.20948 | -40.70552 | 11451 ft | 301 kts | 82° |
| 2026-04-19 15:15 | -9.21025 | -40.68457 | 10648 ft | 300 kts | 105° |
| 2026-04-19 15:15 | -9.21978 | -40.66594 | 9847 ft | 298 kts | 131° |
| 2026-04-19 15:15 | -9.23564 | -40.65275 | 9059 ft | 296 kts | 152° |
| 2026-04-19 15:15 | -9.25488 | -40.64584 | 8273 ft | 293 kts | 171° |
| 2026-04-19 15:16 | -9.27504 | -40.64551 | 7492 ft | 289 kts | 189° |
| 2026-04-19 15:16 | -9.29376 | -40.65142 | 6863 ft | 281 kts | 208° |
| 2026-04-19 15:16 | -9.30934 | -40.66253 | 6688 ft | 266 kts | 224° |
| 2026-04-19 15:16 | -9.32060 | -40.67690 | 6677 ft | 264 kts | 240° |
| 2026-04-19 15:17 | -9.32745 | -40.69408 | 6678 ft | 264 kts | 257° |
| 2026-04-19 15:17 | -9.32904 | -40.71247 | 6679 ft | 263 kts | 274° |
| 2026-04-19 15:17 | -9.32528 | -40.73057 | 6679 ft | 264 kts | 291° |
| 2026-04-19 15:17 | -9.31653 | -40.74683 | 6679 ft | 264 kts | 307° |
| 2026-04-19 15:18 | -9.30428 | -40.76064 | 6680 ft | 264 kts | 315° |
| 2026-04-19 15:18 | -9.29092 | -40.77343 | 6679 ft | 264 kts | 317° |
| 2026-04-19 15:18 | -9.27718 | -40.78581 | 6678 ft | 264 kts | 318° |
| 2026-04-19 15:18 | -9.26224 | -40.79659 | 6678 ft | 265 kts | 334° |
| 2026-04-19 15:19 | -9.24463 | -40.80179 | 6679 ft | 265 kts | 354° |
| 2026-04-19 15:19 | -9.22625 | -40.80072 | 6679 ft | 266 kts | 13° |
| 2026-04-19 15:19 | -9.20930 | -40.79332 | 6679 ft | 267 kts | 34° |
| 2026-04-19 15:19 | -9.19598 | -40.78037 | 6678 ft | 267 kts | 55° |
| 2026-04-19 15:20 | -9.18809 | -40.76369 | 6679 ft | 267 kts | 75° |
| 2026-04-19 15:20 | -9.18645 | -40.74545 | 6676 ft | 252 kts | 96° |
| 2026-04-19 15:20 | -9.19065 | -40.72890 | 6677 ft | 235 kts | 115° |
| 2026-04-19 15:20 | -9.19890 | -40.71570 | 6680 ft | 209 kts | 133° |
| 2026-04-19 15:21 | -9.21045 | -40.70865 | 6543 ft | 186 kts | 169° |
| 2026-04-19 15:21 | -9.22254 | -40.70982 | 6343 ft | 168 kts | 200° |
| 2026-04-19 15:21 | -9.23327 | -40.71355 | 6127 ft | 158 kts | 200° |
| 2026-04-19 15:21 | -9.24345 | -40.71710 | 5907 ft | 152 kts | 200° |
| 2026-04-19 15:22 | -9.25331 | -40.72053 | 5682 ft | 148 kts | 200° |
| 2026-04-19 15:22 | -9.26297 | -40.72389 | 5477 ft | 147 kts | 200° |
| 2026-04-19 15:22 | -9.27239 | -40.72717 | 5277 ft | 140 kts | 200° |
| 2026-04-19 15:22 | -9.28146 | -40.73031 | 5067 ft | 139 kts | 199° |
| 2026-04-19 15:23 | -9.29100 | -40.73134 | 4861 ft | 139 kts | 175° |
| 2026-04-19 15:23 | -9.30024 | -40.72867 | 4654 ft | 139 kts | 154° |
| 2026-04-19 15:23 | -9.30787 | -40.72270 | 4447 ft | 139 kts | 131° |
| 2026-04-19 15:23 | -9.31277 | -40.71429 | 4238 ft | 139 kts | 110° |
| 2026-04-19 15:24 | -9.31595 | -40.70493 | 4029 ft | 139 kts | 109° |
| 2026-04-19 15:24 | -9.31907 | -40.69582 | 3823 ft | 138 kts | 109° |
| 2026-04-19 15:24 | -9.32222 | -40.68661 | 3611 ft | 138 kts | 109° |
| 2026-04-19 15:24 | -9.32537 | -40.67744 | 3414 ft | 138 kts | 109° |
| 2026-04-19 15:25 | -9.32851 | -40.66829 | 3194 ft | 137 kts | 109° |
| 2026-04-19 15:25 | -9.33164 | -40.65919 | 2998 ft | 137 kts | 109° |
| 2026-04-19 15:25 | -9.33476 | -40.65009 | 2797 ft | 136 kts | 109° |
| 2026-04-19 15:25 | -9.33788 | -40.64105 | 2615 ft | 136 kts | 109° |
| 2026-04-19 15:26 | -9.34100 | -40.63204 | 2426 ft | 136 kts | 109° |
| 2026-04-19 15:26 | -9.34408 | -40.62305 | 2239 ft | 135 kts | 109° |
| 2026-04-19 15:26 | -9.34716 | -40.61408 | 2048 ft | 135 kts | 109° |
| 2026-04-19 15:26 | -9.35019 | -40.60526 | 1862 ft | 134 kts | 109° |
| 2026-04-19 15:27 | -9.35324 | -40.59635 | 1678 ft | 134 kts | 109° |
| 2026-04-19 15:27 | -9.35629 | -40.58744 | 1475 ft | 133 kts | 109° |
| 2026-04-19 15:27 | -9.35929 | -40.57858 | 1306 ft | 132 kts | 108° |
| 2026-04-19 15:27 | -9.36206 | -40.57038 | 1273 ft | 96 kts | 109° |
| 2026-04-19 15:28 | -9.36331 | -40.56677 | 1272 ft | 26 kts | 109° |
| 2026-04-19 15:28 | -9.36362 | -40.56586 | 1272 ft | 10 kts | 111° |
| 2026-04-19 15:28 | -9.36415 | -40.56556 | 1270 ft | 8 kts | 189° |
| 2026-04-19 15:28 | -9.36470 | -40.56575 | 1270 ft | 8 kts | 199° |
| 2026-04-19 15:29 | -9.36521 | -40.56584 | 1271 ft | 6 kts | 161° |
| 2026-04-19 15:29 | -9.36546 | -40.56580 | 1271 ft | 3 kts | 186° |
| 2026-04-19 15:29 | -9.36567 | -40.56587 | 1269 ft | 3 kts | 197° |
| 2026-04-19 15:29 | -9.36580 | -40.56591 | 1274 ft | 1 kts | 198° |
| 2026-04-19 15:30 | -9.36581 | -40.56592 | 1273 ft | 0 kts | 198° |